createdAt,value
2018-02-05T00:00:50.295Z,3.77
2018-02-05T00:03:17.940Z,4.30
2018-02-05T00:05:45.574Z,4.43
2018-02-05T00:08:13.689Z,3.93
2018-02-05T00:10:42.145Z,3.93
2018-02-05T00:13:10.681Z,4.17
2018-02-05T00:15:38.395Z,4.20
2018-02-05T00:18:06.063Z,4.07
2018-02-05T00:20:34.265Z,3.90
2018-02-05T00:23:01.935Z,3.83
2018-02-05T00:25:29.574Z,4.20
2018-02-05T00:27:57.221Z,3.87
2018-02-05T00:30:25.374Z,4.27
2018-02-05T00:32:52.959Z,3.97
2018-02-05T00:35:20.661Z,3.87
2018-02-05T00:37:48.346Z,3.40
2018-02-05T00:40:15.997Z,2.57
2018-02-05T00:45:24.378Z,3.55
2018-02-05T00:47:51.994Z,2.60
2018-02-05T00:50:19.846Z,3.20
2018-02-05T00:52:47.616Z,3.40
2018-02-05T00:55:15.301Z,2.90
2018-02-05T00:57:42.920Z,3.00
2018-02-05T01:00:10.669Z,2.77
2018-02-05T01:05:18.831Z,4.30
2018-02-05T01:07:48.975Z,3.73
2018-02-05T01:10:16.597Z,3.70
2018-02-05T01:12:47.933Z,4.07
2018-02-05T01:15:15.579Z,4.07
2018-02-05T01:17:43.226Z,3.83
2018-02-05T01:20:10.961Z,4.50
2018-02-05T01:22:38.596Z,4.30
2018-02-05T01:25:06.218Z,4.23
2018-02-05T01:27:33.928Z,4.67
2018-02-05T01:30:01.547Z,4.87
2018-02-05T01:32:30.012Z,4.77
2018-02-05T01:37:38.646Z,6.65
2018-02-05T01:40:06.402Z,5.77
2018-02-05T01:42:33.981Z,5.47
2018-02-05T01:45:02.598Z,5.33
2018-02-05T01:47:31.215Z,6.13
2018-02-05T01:49:58.986Z,5.83
2018-02-05T01:52:26.568Z,4.77
2018-02-05T01:54:54.219Z,5.53
2018-02-05T01:57:21.861Z,5.93
2018-02-05T01:59:49.512Z,5.53
2018-02-05T02:02:17.225Z,6.50
2018-02-05T02:04:44.856Z,6.53
2018-02-05T02:07:12.509Z,6.60
2018-02-05T02:09:40.212Z,6.10
2018-02-05T02:12:07.870Z,6.30
2018-02-05T02:14:35.514Z,6.43
2018-02-05T02:17:03.184Z,6.37
2018-02-05T02:19:30.846Z,6.33
2018-02-05T02:21:58.465Z,7.90
2018-02-05T02:24:26.155Z,6.53
2018-02-05T02:26:53.796Z,6.73
2018-02-05T02:29:21.444Z,6.43
2018-02-05T02:31:50.012Z,6.57
2018-02-05T02:34:17.654Z,6.60
2018-02-05T02:36:45.264Z,6.33
2018-02-05T02:39:12.964Z,7.17
2018-02-05T02:41:41.165Z,6.67
2018-02-05T02:44:08.808Z,7.40
2018-02-05T02:46:36.500Z,7.30
2018-02-05T02:49:04.123Z,7.47
2018-02-05T02:51:31.763Z,6.73
2018-02-05T02:53:59.473Z,7.33
2018-02-05T02:56:27.461Z,6.03
2018-02-05T02:58:55.093Z,6.17
2018-02-05T03:04:04.094Z,7.32
2018-02-05T03:06:31.815Z,7.67
2018-02-05T03:08:59.471Z,7.50
2018-02-05T03:11:28.001Z,7.57
2018-02-05T03:13:55.699Z,7.07
2018-02-05T03:16:23.356Z,7.30
2018-02-05T03:18:50.969Z,7.10
2018-02-05T03:21:18.695Z,6.50
2018-02-05T03:23:48.334Z,7.83
2018-02-05T03:26:14.972Z,7.60
2018-02-05T03:28:42.629Z,7.87
2018-02-05T03:31:10.278Z,7.83
2018-02-05T03:33:39.528Z,7.73
2018-02-05T03:36:07.251Z,6.93
2018-02-05T03:38:34.889Z,7.50
2018-02-05T03:41:02.524Z,6.87
2018-02-05T03:43:30.295Z,6.57
2018-02-05T03:45:57.910Z,6.37
2018-02-05T03:48:26.349Z,6.13
2018-02-05T03:50:54.039Z,5.87
2018-02-05T03:53:23.934Z,5.73
2018-02-05T03:55:51.576Z,6.57
2018-02-05T03:58:19.318Z,6.10
2018-02-05T04:00:46.935Z,6.37
2018-02-05T04:03:14.766Z,7.43
2018-02-05T04:05:42.436Z,6.30
2018-02-05T04:08:10.081Z,6.43
2018-02-05T04:10:37.713Z,6.90
2018-02-05T04:13:05.410Z,6.73
2018-02-05T04:15:33.300Z,6.67
2018-02-05T04:18:00.850Z,7.50
2018-02-05T04:20:28.649Z,7.30
2018-02-05T04:25:28.030Z,6.83
2018-02-05T04:30:36.116Z,9.32
2018-02-05T04:33:03.831Z,8.53
2018-02-05T04:35:32.321Z,7.70
2018-02-05T04:37:59.939Z,7.67
2018-02-05T04:40:28.601Z,8.17
2018-02-05T04:42:58.855Z,8.83
2018-02-05T04:45:26.492Z,8.33
2018-02-05T04:47:54.197Z,8.33
2018-02-05T04:50:21.837Z,8.07
2018-02-05T04:52:49.508Z,7.70
2018-02-05T04:55:20.005Z,6.93
2018-02-05T04:57:47.626Z,7.67
2018-02-05T05:00:15.901Z,7.37
2018-02-05T05:02:44.016Z,7.87
2018-02-05T05:05:11.673Z,8.10
2018-02-05T05:07:39.310Z,7.97
2018-02-05T05:10:07.013Z,8.33
2018-02-05T05:12:37.003Z,8.00
2018-02-05T05:15:04.643Z,8.30
2018-02-05T05:17:32.359Z,11.00
2018-02-05T05:20:00.981Z,8.77
2018-02-05T05:25:09.509Z,19.55
2018-02-05T05:27:37.157Z,15.03
2018-02-05T05:30:04.787Z,11.87
2018-02-05T05:32:32.498Z,12.57
2018-02-05T05:35:00.128Z,9.03
2018-02-05T05:40:08.251Z,12.18
2018-02-05T05:42:35.922Z,8.43
2018-02-05T05:45:03.584Z,8.37
2018-02-05T05:47:31.278Z,7.30
2018-02-05T05:49:58.979Z,7.47
2018-02-05T05:52:26.558Z,8.20
2018-02-05T05:54:54.247Z,8.13
2018-02-05T05:57:21.893Z,5.10
2018-02-05T05:59:50.827Z,6.37
2018-02-05T06:02:18.489Z,6.77
2018-02-05T06:04:48.914Z,8.23
2018-02-05T06:07:16.516Z,7.07
2018-02-05T06:09:44.316Z,7.00
2018-02-05T06:12:12.055Z,7.87
2018-02-05T06:14:39.734Z,7.67
2018-02-05T06:17:07.829Z,8.63
2018-02-05T06:19:35.436Z,10.00
2018-02-05T06:22:03.102Z,8.50
2018-02-05T06:24:30.816Z,7.87
2018-02-05T06:26:59.675Z,8.60
2018-02-05T06:29:27.266Z,8.30
2018-02-05T06:31:55.000Z,7.40
2018-02-05T06:34:22.752Z,8.00
2018-02-05T06:36:50.341Z,8.53
2018-02-05T06:39:21.162Z,8.73
2018-02-05T06:41:48.781Z,8.17
2018-02-05T06:44:16.878Z,8.60
2018-02-05T06:46:45.501Z,8.40
2018-02-05T06:49:13.356Z,8.47
2018-02-05T06:54:43.173Z,11.02
2018-02-05T06:57:11.767Z,9.00
2018-02-05T06:59:39.429Z,8.37
2018-02-05T07:02:07.658Z,8.27
2018-02-05T07:04:36.484Z,9.67
2018-02-05T07:07:04.163Z,8.87
2018-02-05T07:09:31.854Z,9.10
2018-02-05T07:12:00.313Z,8.93
2018-02-05T07:14:28.128Z,12.60
2018-02-05T07:16:55.767Z,13.53
2018-02-05T07:19:23.453Z,13.33
2018-02-05T07:21:51.139Z,15.70
2018-02-05T07:24:18.768Z,15.43
2018-02-05T07:26:46.475Z,16.00
2018-02-05T07:29:14.109Z,14.70
2018-02-05T07:31:41.761Z,12.73
2018-02-05T07:34:09.426Z,10.73
2018-02-05T07:36:37.076Z,11.20
2018-02-05T07:39:04.802Z,11.63
2018-02-05T07:41:33.398Z,10.37
2018-02-05T07:44:02.224Z,10.50
2018-02-05T07:46:30.741Z,9.73
2018-02-05T07:48:59.199Z,7.03
2018-02-05T07:51:26.849Z,9.47
2018-02-05T07:53:55.331Z,9.37
2018-02-05T07:56:24.046Z,10.57
2018-02-05T07:58:51.684Z,8.37
2018-02-05T08:01:19.308Z,9.90
2018-02-05T08:03:50.026Z,8.33
2018-02-05T08:06:18.630Z,8.67
2018-02-05T08:08:46.272Z,8.70
2018-02-05T08:11:14.824Z,8.97
2018-02-05T08:13:42.469Z,8.90
2018-02-05T08:16:13.208Z,10.23
2018-02-05T08:21:20.946Z,11.65
2018-02-05T08:23:48.656Z,10.20
2018-02-05T08:26:16.303Z,9.57
2018-02-05T08:28:43.945Z,9.00
2018-02-05T08:31:11.645Z,8.27
2018-02-05T08:33:39.282Z,9.30
2018-02-05T08:36:06.894Z,9.73
2018-02-05T08:38:36.176Z,9.17
2018-02-05T08:41:03.816Z,9.73
2018-02-05T08:43:31.540Z,10.17
2018-02-05T08:46:00.169Z,8.63
2018-02-05T08:48:28.691Z,9.33
2018-02-05T08:50:57.196Z,6.57
2018-02-05T08:53:25.864Z,8.97
2018-02-05T08:55:53.513Z,8.90
2018-02-05T08:58:21.196Z,9.10
2018-02-05T09:00:49.706Z,6.80
2018-02-05T09:03:17.325Z,5.20
2018-02-05T09:05:44.950Z,9.93
2018-02-05T09:08:13.546Z,11.27
2018-02-05T09:10:41.174Z,6.47
2018-02-05T09:13:08.802Z,9.30
2018-02-05T09:15:36.517Z,10.10
2018-02-05T09:18:04.167Z,9.87
2018-02-05T09:20:31.803Z,8.50
2018-02-05T09:22:59.504Z,9.30
2018-02-05T09:25:27.960Z,7.47
2018-02-05T09:27:55.606Z,7.47
2018-02-05T09:30:23.321Z,5.53
2018-02-05T09:32:51.708Z,6.47
2018-02-05T09:35:20.283Z,6.00
2018-02-05T09:37:48.392Z,5.63
2018-02-05T09:40:16.099Z,5.57
2018-02-05T09:45:24.272Z,7.60
2018-02-05T09:47:52.016Z,6.47
2018-02-05T09:50:19.654Z,4.83
2018-02-05T09:52:47.374Z,7.27
2018-02-05T09:55:15.828Z,4.10
2018-02-05T09:57:43.465Z,7.57
2018-02-05T10:00:11.953Z,6.67
2018-02-05T10:02:39.576Z,7.33
2018-02-05T10:05:07.378Z,8.23
2018-02-05T10:07:35.086Z,7.63
2018-02-05T10:10:02.732Z,10.23
2018-02-05T10:12:30.351Z,7.47
2018-02-05T10:14:58.064Z,7.93
2018-02-05T10:17:25.708Z,6.90
2018-02-05T10:19:55.297Z,5.60
2018-02-05T10:22:23.770Z,5.17
2018-02-05T10:24:51.493Z,3.50
2018-02-05T10:27:19.082Z,4.53
2018-02-05T10:29:46.781Z,5.70
2018-02-05T10:32:14.406Z,5.53
2018-02-05T10:34:42.108Z,5.43
2018-02-05T10:37:10.594Z,4.83
2018-02-05T10:39:38.233Z,5.80
2018-02-05T10:42:05.875Z,3.90
2018-02-05T10:44:33.577Z,5.30
2018-02-05T10:47:01.196Z,5.17
2018-02-05T10:49:28.894Z,5.30
2018-02-05T10:51:57.538Z,5.80
2018-02-05T10:54:26.107Z,6.07
2018-02-05T10:56:53.735Z,6.03
2018-02-05T10:59:22.706Z,6.27
2018-02-05T11:01:50.734Z,3.97
2018-02-05T11:04:18.315Z,6.67
2018-02-05T11:06:46.956Z,6.73
2018-02-05T11:11:55.663Z,6.93
2018-02-05T11:14:23.319Z,5.67
2018-02-05T11:16:50.973Z,4.40
2018-02-05T11:19:18.696Z,4.97
2018-02-05T11:21:46.322Z,4.10
2018-02-05T11:24:13.966Z,4.87
2018-02-05T11:26:41.661Z,4.60
2018-02-05T11:29:10.287Z,4.90
2018-02-05T11:31:38.848Z,6.47
2018-02-05T11:34:06.531Z,5.80
2018-02-05T11:36:35.911Z,4.53
2018-02-05T11:39:03.529Z,4.80
2018-02-05T11:41:31.225Z,4.30
2018-02-05T11:43:58.855Z,4.73
2018-02-05T11:46:29.273Z,4.53
2018-02-05T11:48:54.188Z,3.37
2018-02-05T11:51:22.698Z,4.70
2018-02-05T11:53:50.337Z,4.33
2018-02-05T11:56:18.208Z,4.20
2018-02-05T11:58:45.813Z,3.13
2018-02-05T12:01:14.890Z,4.03
2018-02-05T12:03:42.575Z,4.53
2018-02-05T12:08:41.972Z,4.63
2018-02-05T12:11:10.411Z,3.77
2018-02-05T12:13:38.917Z,4.13
2018-02-05T12:16:06.558Z,4.47
2018-02-05T12:18:34.255Z,4.90
2018-02-05T12:21:01.905Z,4.97
2018-02-05T12:23:29.511Z,4.90
2018-02-05T12:25:58.088Z,4.03
2018-02-05T12:28:26.550Z,3.67
2018-02-05T12:30:54.184Z,5.50
2018-02-05T12:33:22.842Z,4.07
2018-02-05T12:38:31.615Z,4.78
2018-02-05T12:40:59.231Z,5.43
2018-02-05T12:43:27.934Z,5.77
2018-02-05T12:45:55.654Z,5.63
2018-02-05T12:48:23.302Z,5.83
2018-02-05T12:50:50.936Z,7.03
2018-02-05T12:53:19.576Z,7.03
2018-02-05T12:55:47.608Z,6.00
2018-02-05T12:58:15.242Z,5.93
2018-02-05T13:00:48.438Z,6.63
2018-02-05T13:05:58.815Z,4.75
2018-02-05T13:08:26.505Z,4.27
2018-02-05T13:10:54.252Z,4.20
2018-02-05T13:13:21.966Z,3.73
2018-02-05T13:15:50.348Z,4.00
2018-02-05T13:18:18.921Z,3.93
2018-02-05T13:20:46.612Z,4.00
2018-02-05T13:23:14.301Z,4.40
2018-02-05T13:25:42.247Z,3.23
2018-02-05T13:28:09.928Z,3.93
2018-02-05T13:30:37.573Z,4.13
2018-02-05T13:33:06.186Z,3.73
2018-02-05T13:35:33.955Z,4.60
2018-02-05T13:38:02.364Z,4.30
2018-02-05T13:40:30.025Z,4.30
2018-02-05T13:42:58.705Z,4.07
2018-02-05T13:45:26.321Z,4.17
2018-02-05T13:47:53.988Z,3.97
2018-02-05T13:50:22.400Z,4.37
2018-02-05T13:52:50.056Z,5.43
2018-02-05T13:55:17.642Z,5.60
2018-02-05T13:57:46.081Z,5.00
2018-02-05T14:00:13.720Z,4.70
2018-02-05T14:02:41.331Z,4.33
2018-02-05T14:05:10.033Z,4.37
2018-02-05T14:07:37.629Z,5.20
2018-02-05T14:10:05.650Z,5.40
2018-02-05T14:12:33.379Z,5.20
2018-02-05T14:15:01.043Z,5.63
2018-02-05T14:17:28.663Z,5.17
2018-02-05T14:19:56.381Z,5.87
2018-02-05T14:25:04.956Z,7.28
2018-02-05T14:27:33.402Z,6.57
2018-02-05T14:30:01.061Z,6.83
2018-02-05T14:32:28.733Z,6.63
2018-02-05T14:34:57.365Z,7.03
2018-02-05T14:37:26.053Z,6.03
2018-02-05T14:39:54.594Z,6.70
2018-02-05T14:42:23.064Z,7.37
2018-02-05T14:44:50.686Z,7.23
2018-02-05T14:47:19.352Z,7.30
2018-02-05T14:49:47.906Z,6.93
2018-02-05T14:52:15.538Z,7.23
2018-02-05T14:54:43.562Z,7.47
2018-02-05T14:57:11.956Z,7.83
2018-02-05T14:59:39.610Z,7.20
2018-02-05T15:02:07.348Z,6.83
2018-02-05T15:04:35.817Z,7.20
2018-02-05T15:07:03.440Z,7.50
2018-02-05T15:09:31.138Z,6.70
2018-02-05T15:11:58.771Z,6.97
2018-02-05T15:14:26.425Z,6.77
2018-02-05T15:16:54.615Z,6.53
2018-02-05T15:19:23.020Z,7.40
2018-02-05T15:21:50.650Z,7.37
2018-02-05T15:24:18.376Z,8.50
2018-02-05T15:26:46.051Z,7.67
2018-02-05T15:29:13.705Z,8.00
2018-02-05T15:31:41.394Z,7.20
2018-02-05T15:34:09.025Z,8.10
2018-02-05T15:36:36.667Z,7.70
2018-02-05T15:41:43.483Z,9.50
2018-02-05T15:44:12.413Z,8.00
2018-02-05T15:49:11.897Z,7.57
2018-02-05T15:51:40.351Z,8.10
2018-02-05T15:54:07.989Z,9.83
2018-02-05T15:56:35.703Z,9.47
2018-02-05T15:59:04.189Z,9.70
2018-02-05T16:01:31.828Z,9.90
2018-02-05T16:03:59.522Z,8.80
2018-02-05T16:06:27.184Z,7.97
2018-02-05T16:08:54.815Z,9.00
2018-02-05T16:11:22.496Z,10.50
2018-02-05T16:13:50.183Z,9.40
2018-02-05T16:16:17.903Z,9.10
2018-02-05T16:18:45.580Z,8.73
2018-02-05T16:21:13.243Z,10.00
2018-02-05T16:23:40.868Z,9.20
2018-02-05T16:26:08.544Z,9.43
2018-02-05T16:28:36.180Z,9.60
2018-02-05T16:31:03.826Z,9.07
2018-02-05T16:33:32.277Z,8.40
2018-02-05T16:38:41.311Z,11.57
2018-02-05T16:41:08.951Z,12.67
2018-02-05T16:43:36.612Z,11.37
2018-02-05T16:46:04.311Z,10.10
2018-02-05T16:48:32.777Z,9.97
2018-02-05T16:51:01.338Z,9.17
2018-02-05T16:53:30.035Z,8.73
2018-02-05T16:55:57.648Z,8.77
2018-02-05T16:58:26.122Z,9.33
2018-02-05T17:00:53.845Z,8.77
2018-02-05T17:03:21.448Z,12.47
2018-02-05T17:05:49.081Z,9.20
2018-02-05T17:08:16.837Z,12.33
2018-02-05T17:11:08.191Z,9.57
2018-02-05T17:13:16.781Z,13.93
2018-02-05T17:15:44.463Z,10.53
2018-02-05T17:18:12.029Z,14.23
2018-02-05T17:20:39.711Z,17.00
2018-02-05T17:23:08.130Z,10.23
2018-02-05T17:25:35.809Z,36.40
2018-02-05T17:28:03.513Z,41.17
2018-02-05T17:30:31.146Z,36.40
2018-02-05T17:32:58.804Z,9.60
2018-02-05T17:35:27.330Z,9.03
2018-02-05T17:37:58.500Z,10.03
2018-02-05T17:40:26.163Z,9.40
2018-02-05T17:42:53.825Z,40.90
2018-02-05T17:45:21.448Z,11.80
2018-02-05T17:47:49.064Z,15.00
2018-02-05T17:50:16.804Z,12.73
2018-02-05T17:52:44.442Z,10.53
2018-02-05T17:57:44.012Z,11.90
2018-02-05T18:00:11.645Z,11.30
2018-02-05T18:05:18.447Z,16.20
2018-02-05T18:07:46.631Z,11.07
2018-02-05T18:10:14.136Z,10.77
2018-02-05T18:12:41.817Z,9.67
2018-02-05T18:15:09.479Z,10.27
2018-02-05T18:17:37.145Z,15.03
2018-02-05T18:20:04.843Z,61.70
2018-02-05T18:22:32.507Z,41.27
2018-02-05T18:25:00.156Z,31.90
2018-02-05T18:27:28.980Z,16.57
2018-02-05T18:29:57.585Z,11.57
2018-02-05T18:32:25.270Z,13.13
2018-02-05T18:34:53.851Z,13.73
2018-02-05T18:37:21.501Z,10.87
2018-02-05T18:39:49.171Z,10.30
2018-02-05T18:42:16.894Z,8.37
2018-02-05T18:44:44.523Z,10.50
2018-02-05T18:47:13.067Z,12.83
2018-02-05T18:49:40.794Z,12.07
2018-02-05T18:52:08.442Z,12.33
2018-02-05T18:54:37.100Z,12.93
2018-02-05T18:57:04.788Z,15.63
2018-02-05T18:59:32.501Z,12.23
2018-02-05T19:02:11.899Z,14.53
2018-02-05T19:04:39.776Z,14.80
2018-02-05T19:07:07.995Z,14.90
2018-02-05T19:09:35.847Z,13.73
2018-02-05T19:12:03.423Z,12.20
2018-02-05T19:14:31.079Z,13.70
2018-02-05T19:16:58.811Z,12.43
2018-02-05T19:19:26.453Z,12.13
2018-02-05T19:21:54.078Z,12.70
2018-02-05T19:27:00.817Z,14.95
2018-02-05T19:29:28.515Z,11.23
2018-02-05T19:31:56.142Z,11.10
2018-02-05T19:34:24.067Z,10.97
2018-02-05T19:36:51.764Z,11.53
2018-02-05T19:39:20.223Z,11.67
2018-02-05T19:41:47.960Z,11.60
2018-02-05T19:44:16.249Z,11.40
2018-02-05T19:52:01.968Z,14.38
2018-02-05T19:57:08.888Z,16.12
2018-02-05T19:59:36.633Z,13.50
2018-02-05T20:02:04.273Z,14.53
2018-02-05T20:04:31.947Z,13.80
2018-02-05T20:06:59.664Z,13.57
2018-02-05T20:14:45.477Z,15.50
2018-02-05T20:17:13.181Z,34.87
2018-02-05T20:19:51.614Z,13.03
2018-02-05T20:24:55.888Z,13.67
2018-02-05T20:27:23.370Z,13.17
2018-02-05T20:29:52.037Z,14.03
2018-02-05T20:37:56.931Z,15.17
2018-02-05T20:40:28.932Z,16.03
2018-02-05T20:45:41.482Z,17.40
2018-02-05T20:48:09.025Z,19.50
2018-02-05T20:50:36.690Z,21.00
2018-02-05T20:53:04.371Z,28.27
2018-02-05T20:55:32.017Z,22.77
2018-02-05T20:57:59.853Z,32.60
2018-02-05T21:03:27.097Z,54.97
2018-02-05T21:05:58.029Z,49.60
2018-02-05T21:08:25.892Z,31.13
2018-02-05T21:10:53.583Z,19.90
2018-02-05T21:13:21.954Z,39.90
2018-02-05T21:15:49.603Z,44.70
2018-02-05T21:18:17.250Z,30.10
2018-02-05T21:20:45.122Z,38.23
2018-02-05T21:23:14.015Z,24.03
2018-02-05T21:25:44.803Z,16.80
2018-02-05T21:28:12.446Z,16.10
2018-02-05T21:30:40.180Z,15.37
2018-02-05T21:33:07.885Z,16.00
2018-02-05T21:35:35.510Z,16.77
2018-02-05T21:38:03.165Z,21.50
2018-02-05T21:40:30.842Z,38.03
2018-02-05T21:42:58.501Z,42.20
2018-02-05T21:45:26.155Z,34.73
2018-02-05T21:47:53.842Z,21.20
2018-02-05T21:50:21.465Z,17.90
2018-02-05T21:52:49.136Z,15.53
2018-02-05T21:55:17.169Z,14.73
2018-02-05T21:57:44.776Z,16.37
2018-02-05T22:00:12.423Z,16.50
2018-02-05T22:02:40.186Z,18.17
2018-02-05T22:07:47.150Z,17.00
2018-02-05T22:10:14.768Z,17.27
2018-02-05T22:12:42.395Z,16.93
2018-02-05T22:15:10.114Z,15.87
2018-02-05T22:17:37.757Z,16.33
2018-02-05T22:20:05.401Z,17.00
2018-02-05T22:22:33.098Z,17.17
2018-02-05T22:27:39.946Z,17.48
2018-02-05T22:30:07.596Z,14.87
2018-02-05T22:32:35.234Z,12.73
2018-02-05T22:35:03.812Z,16.47
2018-02-05T22:37:35.758Z,16.73
2018-02-05T22:40:03.837Z,13.90
2018-02-05T22:42:31.493Z,16.53
2018-02-05T22:44:59.141Z,16.63
2018-02-05T22:47:26.844Z,15.13
2018-02-05T22:49:54.469Z,14.80
2018-02-05T22:52:22.121Z,15.20
2018-02-05T22:54:49.818Z,15.63
2018-02-05T22:57:17.471Z,15.77
2018-02-05T22:59:47.088Z,15.93
2018-02-05T23:02:14.785Z,15.87
2018-02-05T23:04:42.433Z,16.10
2018-02-05T23:07:10.073Z,16.17
2018-02-05T23:09:37.773Z,14.97
2018-02-05T23:12:05.413Z,15.20
2018-02-05T23:14:33.037Z,15.73
2018-02-05T23:17:01.085Z,14.30
2018-02-05T23:19:28.714Z,14.30
2018-02-05T23:21:56.357Z,14.57
2018-02-05T23:24:24.059Z,15.27
2018-02-05T23:26:51.717Z,14.60
2018-02-05T23:29:19.685Z,14.17
2018-02-05T23:31:47.109Z,14.13
2018-02-05T23:34:14.753Z,13.53
2018-02-05T23:36:43.324Z,15.10
2018-02-05T23:39:11.075Z,14.43
2018-02-05T23:41:38.687Z,14.20
2018-02-05T23:44:06.307Z,14.87
2018-02-05T23:46:33.995Z,15.03
2018-02-05T23:49:01.715Z,14.00
2018-02-05T23:51:29.354Z,13.90
2018-02-05T23:56:38.239Z,16.48
2018-02-05T23:59:06.950Z,13.33
